createdAt,value
2022-10-29T00:00:45.101Z,16.30
2022-10-29T00:03:13.080Z,16.20
2022-10-29T00:05:41.056Z,16.20
2022-10-29T00:08:08.935Z,16.20
2022-10-29T00:10:36.999Z,16.20
2022-10-29T00:13:04.970Z,16.20
2022-10-29T00:15:34.343Z,16.20
2022-10-29T00:18:02.262Z,16.20
2022-10-29T00:20:30.272Z,16.20
2022-10-29T00:22:58.498Z,16.20
2022-10-29T00:25:26.517Z,15.90
2022-10-29T00:27:56.605Z,16.10
2022-10-29T00:30:24.512Z,16.10
2022-10-29T00:32:54.070Z,16.10
2022-10-29T00:35:22.320Z,16.10
2022-10-29T00:37:50.288Z,16.10
2022-10-29T00:40:18.247Z,16.00
2022-10-29T00:42:46.209Z,16.00
2022-10-29T00:45:19.864Z,16.00
2022-10-29T00:47:50.512Z,16.00
2022-10-29T00:50:21.062Z,16.00
2022-10-29T00:52:50.074Z,16.00
2022-10-29T00:55:19.057Z,15.90
2022-10-29T00:57:50.098Z,15.90
2022-10-29T01:00:18.284Z,15.90
2022-10-29T01:02:46.419Z,15.90
2022-10-29T01:05:16.263Z,15.90
2022-10-29T01:07:45.708Z,15.90
2022-10-29T01:10:13.963Z,15.80
2022-10-29T01:12:58.606Z,15.80
2022-10-29T01:15:30.188Z,15.80
2022-10-29T01:18:04.086Z,15.70
2022-10-29T01:20:58.863Z,15.70
2022-10-29T01:23:50.590Z,15.70
2022-10-29T01:26:27.480Z,15.60
2022-10-29T01:29:04.719Z,15.60
2022-10-29T01:31:36.558Z,15.60
2022-10-29T01:34:07.036Z,15.60
2022-10-29T01:36:37.996Z,15.60
2022-10-29T01:39:08.293Z,15.60
2022-10-29T01:41:44.354Z,15.60
2022-10-29T01:44:15.659Z,15.60
2022-10-29T01:46:47.406Z,15.50
2022-10-29T01:49:18.733Z,15.50
2022-10-29T01:51:47.504Z,15.50
2022-10-29T01:54:15.413Z,15.50
2022-10-29T01:56:43.351Z,15.40
2022-10-29T01:59:22.953Z,15.40
2022-10-29T02:02:07.263Z,15.40
2022-10-29T02:04:43.667Z,15.40
2022-10-29T02:07:16.797Z,15.30
2022-10-29T02:09:53.985Z,15.30
2022-10-29T02:12:24.626Z,15.20
2022-10-29T02:14:54.801Z,15.10
2022-10-29T02:17:24.378Z,15.10
2022-10-29T02:19:52.275Z,15.10
2022-10-29T02:22:20.160Z,15.10
2022-10-29T02:24:48.382Z,15.10
2022-10-29T02:27:16.388Z,15.10
2022-10-29T02:29:44.551Z,15.10
2022-10-29T02:32:12.557Z,15.10
2022-10-29T02:34:41.789Z,15.10
2022-10-29T02:37:09.690Z,15.10
2022-10-29T02:39:37.640Z,15.00
2022-10-29T02:42:05.787Z,15.00
2022-10-29T02:44:33.633Z,15.00
2022-10-29T02:47:01.541Z,14.90
2022-10-29T02:49:29.585Z,14.90
2022-10-29T02:51:58.978Z,14.90
2022-10-29T02:54:26.895Z,14.80
2022-10-29T02:56:54.820Z,14.80
2022-10-29T02:59:22.686Z,14.80
2022-10-29T03:01:50.755Z,14.70
2022-10-29T03:04:18.724Z,14.70
2022-10-29T03:06:46.612Z,14.70
2022-10-29T03:09:15.990Z,14.70
2022-10-29T03:11:43.993Z,14.60
2022-10-29T03:14:11.993Z,14.60
2022-10-29T03:16:40.060Z,14.60
2022-10-29T03:19:07.995Z,14.60
2022-10-29T03:21:35.898Z,14.50
2022-10-29T03:24:03.928Z,14.50
2022-10-29T03:26:33.202Z,14.40
2022-10-29T03:29:01.099Z,14.40
2022-10-29T03:31:28.954Z,14.40
2022-10-29T03:33:56.948Z,14.40
2022-10-29T03:36:24.958Z,14.30
2022-10-29T03:38:52.937Z,14.30
2022-10-29T03:41:20.889Z,14.30
2022-10-29T03:43:50.408Z,14.20
2022-10-29T03:46:18.304Z,14.20
2022-10-29T03:48:46.208Z,14.20
2022-10-29T03:51:14.132Z,14.10
2022-10-29T03:53:42.267Z,14.10
2022-10-29T03:56:10.673Z,14.00
2022-10-29T03:58:38.557Z,14.00
2022-10-29T04:01:08.795Z,14.00
2022-10-29T04:03:37.597Z,14.00
2022-10-29T04:06:10.159Z,14.00
2022-10-29T04:08:38.088Z,13.90
2022-10-29T04:11:05.985Z,13.90
2022-10-29T04:13:33.957Z,13.90
2022-10-29T04:16:01.906Z,13.90
2022-10-29T04:18:31.313Z,13.90
2022-10-29T04:29:26.068Z,13.80
2022-10-29T04:31:53.934Z,13.80
2022-10-29T04:34:23.182Z,13.70
2022-10-29T04:36:52.455Z,13.70
2022-10-29T04:39:22.617Z,13.70
2022-10-29T04:41:51.582Z,13.70
2022-10-29T04:44:20.062Z,13.70
2022-10-29T04:46:48.240Z,13.70
2022-10-29T04:49:16.212Z,13.60
2022-10-29T04:51:45.614Z,13.60
2022-10-29T04:54:13.564Z,13.50
2022-10-29T04:56:41.558Z,13.50
2022-10-29T04:59:09.477Z,13.50
2022-10-29T05:01:37.435Z,13.50
2022-10-29T05:04:05.616Z,13.50
2022-10-29T05:06:33.500Z,13.50
2022-10-29T05:09:02.895Z,13.50
2022-10-29T05:11:30.798Z,13.50
2022-10-29T05:13:58.737Z,13.40
2022-10-29T05:16:26.621Z,13.40
2022-10-29T05:18:54.623Z,13.40
2022-10-29T05:21:22.613Z,13.40
2022-10-29T05:23:50.482Z,13.40
2022-10-29T05:26:19.793Z,13.40
2022-10-29T05:28:49.969Z,13.30
2022-10-29T05:31:17.997Z,13.30
2022-10-29T05:33:46.038Z,13.30
2022-10-29T05:36:14.015Z,13.30
2022-10-29T05:38:41.949Z,13.30
2022-10-29T05:41:10.509Z,13.20
2022-10-29T05:43:39.935Z,13.20
2022-10-29T05:46:07.982Z,13.20
2022-10-29T05:48:35.922Z,13.20
2022-10-29T05:51:04.491Z,13.10
2022-10-29T05:53:32.480Z,13.10
2022-10-29T05:56:00.445Z,13.10
2022-10-29T05:58:28.339Z,13.10
2022-10-29T06:00:57.719Z,13.00
2022-10-29T06:03:25.665Z,13.00
2022-10-29T06:05:53.640Z,13.00
2022-10-29T06:08:21.575Z,13.00
2022-10-29T06:10:49.498Z,13.00
2022-10-29T06:13:18.188Z,13.00
2022-10-29T06:15:46.356Z,13.00
2022-10-29T06:18:15.664Z,13.00
2022-10-29T06:20:44.381Z,12.90
2022-10-29T06:23:12.546Z,13.00
2022-10-29T06:25:40.751Z,13.00
2022-10-29T06:28:09.457Z,13.00
2022-10-29T06:30:37.690Z,13.00
2022-10-29T06:33:06.151Z,13.00
2022-10-29T06:38:11.104Z,13.00
2022-10-29T06:40:40.024Z,13.00
2022-10-29T06:43:08.732Z,13.00
2022-10-29T06:45:36.926Z,13.00
2022-10-29T06:48:05.507Z,13.00
2022-10-29T06:50:35.011Z,13.00
2022-10-29T06:53:03.542Z,13.00
2022-10-29T06:55:31.464Z,13.00
2022-10-29T06:58:01.555Z,13.00
2022-10-29T07:00:30.010Z,13.00
2022-10-29T07:02:58.584Z,12.90
2022-10-29T07:05:26.777Z,12.90
2022-10-29T07:07:57.758Z,12.90
2022-10-29T07:10:26.781Z,12.90
2022-10-29T07:12:54.811Z,12.90
2022-10-29T07:15:27.235Z,13.00
2022-10-29T07:17:59.319Z,13.00
2022-10-29T07:20:27.574Z,13.00
2022-10-29T07:22:57.679Z,12.70
2022-10-29T07:25:26.042Z,13.00
2022-10-29T07:39:34.712Z,13.10
2022-10-29T07:42:02.918Z,13.20
2022-10-29T07:44:30.877Z,13.30
2022-10-29T07:46:59.282Z,13.20
2022-10-29T07:49:27.276Z,13.30
2022-10-29T07:51:55.317Z,13.30
2022-10-29T07:54:23.208Z,13.40
2022-10-29T07:56:53.724Z,13.40
2022-10-29T07:59:21.691Z,13.40
2022-10-29T08:01:49.740Z,13.40
2022-10-29T08:04:17.809Z,13.50
2022-10-29T08:06:45.719Z,13.50
2022-10-29T08:09:13.722Z,13.60
2022-10-29T08:11:41.675Z,13.60
2022-10-29T08:14:12.790Z,13.60
2022-10-29T08:16:40.827Z,13.60
2022-10-29T08:19:08.902Z,13.70
2022-10-29T08:21:36.822Z,13.70
2022-10-29T08:24:04.990Z,13.70
2022-10-29T08:26:33.209Z,13.80
2022-10-29T08:29:01.197Z,13.80
2022-10-29T08:31:30.540Z,13.80
2022-10-29T08:33:58.454Z,13.90
2022-10-29T08:36:26.343Z,13.90
2022-10-29T08:38:54.310Z,13.90
2022-10-29T08:41:33.933Z,14.00
2022-10-29T08:44:05.183Z,14.00
2022-10-29T08:46:41.365Z,14.00
2022-10-29T08:49:13.118Z,14.10
2022-10-29T08:51:43.710Z,14.10
2022-10-29T08:57:05.504Z,14.10
2022-10-29T08:59:35.329Z,13.10
2022-10-29T09:02:04.928Z,14.20
2022-10-29T09:04:34.622Z,14.30
2022-10-29T09:07:11.993Z,14.30
2022-10-29T09:09:40.951Z,14.40
2022-10-29T09:12:17.367Z,14.40
2022-10-29T09:15:04.542Z,14.40
2022-10-29T09:17:37.974Z,14.50
2022-10-29T09:20:16.524Z,14.50
2022-10-29T09:22:48.382Z,14.60
2022-10-29T09:25:18.595Z,14.60
2022-10-29T09:27:51.927Z,14.60
2022-10-29T09:30:20.602Z,14.70
2022-10-29T09:32:55.610Z,14.70
2022-10-29T09:35:28.087Z,14.70
2022-10-29T09:37:58.431Z,14.70
2022-10-29T09:40:31.288Z,14.80
2022-10-29T09:43:00.159Z,14.80
2022-10-29T09:45:36.775Z,14.90
2022-10-29T09:48:07.787Z,14.90
2022-10-29T09:50:41.642Z,15.00
2022-10-29T09:53:09.688Z,15.00
2022-10-29T09:55:40.175Z,15.10
2022-10-29T09:58:08.777Z,15.10
2022-10-29T10:00:36.656Z,15.20
2022-10-29T10:03:07.467Z,15.20
2022-10-29T10:05:36.463Z,15.30
2022-10-29T10:08:06.448Z,15.40
2022-10-29T10:10:35.127Z,15.40
2022-10-29T10:13:03.795Z,15.50
2022-10-29T10:15:33.476Z,15.50
2022-10-29T10:18:02.149Z,15.50
2022-10-29T10:20:33.134Z,15.60
2022-10-29T10:23:01.172Z,15.60
2022-10-29T10:25:33.592Z,15.70
2022-10-29T10:28:04.386Z,15.70
2022-10-29T10:30:32.263Z,15.80
2022-10-29T10:33:11.934Z,15.90
2022-10-29T10:35:41.279Z,15.90
2022-10-29T10:38:10.052Z,16.10
2022-10-29T10:40:38.233Z,16.00
2022-10-29T10:43:08.314Z,16.10
2022-10-29T10:45:37.875Z,16.10
2022-10-29T10:48:09.398Z,16.20
2022-10-29T10:50:38.098Z,16.20
2022-10-29T10:53:17.037Z,16.30
2022-10-29T10:55:48.054Z,16.50
2022-10-29T10:58:20.903Z,16.40
2022-10-29T11:00:50.317Z,16.40
2022-10-29T11:03:21.395Z,16.40
2022-10-29T11:05:55.755Z,16.50
2022-10-29T11:08:27.369Z,16.50
2022-10-29T11:10:56.180Z,16.60
2022-10-29T11:13:24.878Z,16.60
2022-10-29T11:15:56.000Z,16.70
2022-10-29T11:18:26.616Z,16.70
2022-10-29T11:21:00.572Z,16.80
2022-10-29T11:23:34.621Z,16.80
2022-10-29T11:26:07.944Z,16.80
2022-10-29T11:28:39.622Z,16.90
2022-10-29T11:31:11.517Z,16.90
2022-10-29T11:33:44.553Z,17.00
2022-10-29T11:36:15.787Z,17.00
2022-10-29T11:38:47.793Z,17.10
2022-10-29T11:41:21.547Z,17.10
2022-10-29T11:43:49.531Z,17.10
2022-10-29T11:46:24.117Z,17.20
2022-10-29T11:48:58.942Z,17.30
2022-10-29T11:51:29.819Z,17.30
2022-10-29T11:54:01.380Z,17.40
2022-10-29T11:56:40.606Z,17.40
2022-10-29T11:59:11.850Z,17.50
2022-10-29T12:01:43.967Z,17.50
2022-10-29T12:04:23.004Z,17.60
2022-10-29T12:06:57.838Z,17.70
2022-10-29T12:09:36.975Z,17.90
2022-10-29T12:12:09.887Z,18.10
2022-10-29T12:14:41.996Z,18.40
2022-10-29T12:17:14.360Z,18.50
2022-10-29T12:19:46.363Z,18.60
2022-10-29T12:22:22.299Z,18.80
2022-10-29T12:25:02.720Z,18.90
2022-10-29T12:27:35.799Z,19.00
2022-10-29T12:30:05.012Z,19.10
2022-10-29T12:32:38.654Z,19.20
2022-10-29T12:35:11.529Z,19.40
2022-10-29T12:37:43.448Z,19.50
2022-10-29T12:40:17.090Z,19.80
2022-10-29T12:42:46.014Z,20.10
2022-10-29T12:45:22.309Z,20.30
2022-10-29T12:47:53.888Z,20.50
2022-10-29T12:50:29.614Z,20.60
2022-10-29T12:53:02.636Z,20.70
2022-10-29T12:55:32.547Z,20.90
2022-10-29T12:58:00.525Z,21.10
2022-10-29T13:00:43.464Z,21.40
2022-10-29T13:03:11.500Z,21.70
2022-10-29T13:05:41.398Z,22.10
2022-10-29T13:08:20.060Z,22.30
2022-10-29T13:10:56.298Z,22.50
2022-10-29T13:13:37.493Z,22.80
2022-10-29T13:16:07.878Z,23.00
2022-10-29T13:18:45.167Z,23.20
2022-10-29T13:21:13.177Z,23.40
2022-10-29T13:23:41.413Z,23.40
2022-10-29T13:26:10.750Z,23.60
2022-10-29T13:28:50.431Z,23.70
2022-10-29T13:31:36.043Z,23.90
2022-10-29T13:34:03.937Z,24.10
2022-10-29T13:36:38.440Z,24.20
2022-10-29T13:39:20.061Z,24.10
2022-10-29T13:41:52.334Z,24.00
2022-10-29T13:44:21.626Z,23.90
2022-10-29T13:46:52.770Z,23.80
2022-10-29T13:49:23.185Z,23.70
2022-10-29T13:51:54.342Z,23.50
2022-10-29T13:57:04.387Z,23.30
2022-10-29T13:59:37.003Z,23.20
2022-10-29T14:02:22.878Z,23.20
2022-10-29T14:04:53.189Z,23.00
2022-10-29T14:07:24.247Z,22.90
2022-10-29T14:09:54.323Z,22.80
2022-10-29T14:12:25.968Z,22.70
2022-10-29T14:14:57.540Z,22.70
2022-10-29T14:17:25.403Z,22.60
2022-10-29T14:19:53.580Z,22.50
2022-10-29T14:22:37.580Z,22.40
2022-10-29T14:25:20.546Z,22.50
2022-10-29T14:28:08.503Z,22.60
2022-10-29T14:30:36.490Z,22.60
2022-10-29T14:33:18.030Z,22.60
2022-10-29T14:35:46.767Z,22.60
2022-10-29T14:38:15.159Z,22.50
2022-10-29T14:40:44.725Z,22.50
2022-10-29T14:43:21.604Z,22.50
2022-10-29T14:45:49.648Z,22.40
2022-10-29T14:48:18.668Z,22.40
2022-10-29T14:50:47.362Z,22.40
2022-10-29T14:53:24.901Z,22.30
2022-10-29T14:55:53.094Z,22.30
2022-10-29T15:00:59.031Z,22.20
2022-10-29T15:03:27.847Z,22.20
2022-10-29T15:06:11.347Z,22.20
2022-10-29T15:08:40.229Z,22.10
2022-10-29T15:11:32.081Z,22.10
2022-10-29T15:14:01.369Z,22.00
2022-10-29T15:16:29.415Z,21.90
2022-10-29T15:18:57.787Z,21.80
2022-10-29T15:21:26.663Z,21.70
2022-10-29T15:23:57.024Z,21.60
2022-10-29T15:26:24.923Z,21.50
2022-10-29T15:28:53.935Z,21.40
2022-10-29T15:31:24.886Z,21.30
2022-10-29T15:33:53.287Z,21.30
2022-10-29T15:36:21.244Z,21.20
2022-10-29T15:39:04.214Z,21.10
2022-10-29T15:41:35.608Z,20.90
2022-10-29T15:44:03.594Z,20.90
2022-10-29T15:46:36.288Z,20.80
2022-10-29T15:49:04.215Z,20.80
2022-10-29T15:51:32.223Z,20.60
2022-10-29T15:54:03.139Z,20.60
2022-10-29T15:56:32.389Z,20.50
2022-10-29T15:59:00.543Z,20.50
2022-10-29T16:01:28.622Z,20.40
2022-10-29T16:03:58.167Z,20.40
2022-10-29T16:06:26.077Z,20.30
2022-10-29T16:08:55.699Z,20.20
2022-10-29T16:11:24.071Z,20.20
2022-10-29T16:13:54.974Z,20.10
2022-10-29T16:16:24.055Z,20.10
2022-10-29T16:18:52.760Z,20.00
2022-10-29T16:21:23.012Z,20.00
2022-10-29T16:23:51.524Z,19.90
2022-10-29T16:26:20.213Z,19.80
2022-10-29T16:28:48.082Z,19.80
2022-10-29T16:31:20.324Z,19.70
2022-10-29T16:33:48.910Z,19.70
2022-10-29T16:36:16.965Z,19.70
2022-10-29T16:38:46.340Z,19.60
2022-10-29T16:41:14.957Z,19.50
2022-10-29T16:43:43.238Z,19.50
2022-10-29T16:46:11.357Z,19.40
2022-10-29T16:48:39.453Z,19.40
2022-10-29T16:51:07.797Z,19.30
2022-10-29T16:53:36.235Z,19.30
2022-10-29T16:56:05.912Z,19.30
2022-10-29T16:58:34.061Z,19.20
2022-10-29T17:01:05.879Z,19.20
2022-10-29T17:03:34.431Z,19.20
2022-10-29T17:06:05.990Z,19.20
2022-10-29T17:08:34.360Z,19.10
2022-10-29T17:11:02.823Z,19.10
2022-10-29T17:13:32.112Z,19.00
2022-10-29T17:16:00.114Z,18.90
2022-10-29T17:18:28.441Z,20.00
2022-10-29T17:20:57.039Z,18.90
2022-10-29T17:23:24.902Z,18.90
2022-10-29T17:25:54.332Z,18.80
2022-10-29T17:28:22.481Z,18.70
2022-10-29T17:30:51.853Z,18.70
2022-10-29T17:33:20.191Z,18.70
2022-10-29T17:35:48.089Z,18.60
2022-10-29T17:38:16.120Z,18.60
2022-10-29T17:40:44.265Z,18.60
2022-10-29T17:43:12.199Z,18.50
2022-10-29T17:45:40.178Z,18.50
2022-10-29T17:48:09.399Z,18.50
2022-10-29T17:50:37.414Z,18.50
2022-10-29T17:53:05.415Z,18.40
2022-10-29T17:55:33.440Z,18.30
2022-10-29T17:58:01.491Z,18.30
2022-10-29T18:00:29.694Z,18.30
2022-10-29T18:05:32.591Z,18.20
2022-10-29T18:08:00.669Z,18.20
2022-10-29T18:10:28.971Z,18.20
2022-10-29T18:12:56.945Z,18.10
2022-10-29T18:15:25.085Z,18.10
2022-10-29T18:20:25.988Z,18.10
2022-10-29T18:22:56.280Z,18.00
2022-10-29T18:25:24.247Z,18.00
2022-10-29T18:27:55.559Z,18.00
2022-10-29T18:30:23.868Z,17.90
2022-10-29T18:32:51.818Z,17.90
2022-10-29T18:35:19.997Z,17.90
2022-10-29T18:37:47.964Z,17.90
2022-10-29T18:40:17.399Z,17.80
2022-10-29T18:42:45.324Z,17.80
2022-10-29T18:45:13.229Z,17.70
2022-10-29T18:47:41.218Z,17.70
2022-10-29T18:50:09.275Z,17.70
2022-10-29T18:52:37.174Z,17.70
2022-10-29T18:55:05.454Z,17.60
2022-10-29T18:57:34.863Z,17.50
2022-10-29T19:00:02.838Z,17.50
2022-10-29T19:02:31.813Z,17.50
2022-10-29T19:04:59.758Z,17.50
2022-10-29T19:07:27.754Z,17.50
2022-10-29T19:09:55.667Z,17.40
2022-10-29T19:12:23.603Z,17.40
2022-10-29T19:14:52.959Z,17.40
2022-10-29T19:17:20.894Z,17.30
2022-10-29T19:19:48.864Z,17.30
2022-10-29T19:22:16.817Z,17.30
2022-10-29T19:24:44.749Z,17.20
2022-10-29T19:27:12.732Z,17.20
2022-10-29T19:29:40.674Z,17.20
2022-10-29T19:32:09.970Z,17.20
2022-10-29T19:37:12.049Z,17.10
2022-10-29T19:39:39.936Z,17.10
2022-10-29T19:42:07.897Z,17.10
2022-10-29T19:44:35.780Z,17.00
2022-10-29T19:47:03.839Z,17.00
2022-10-29T19:49:33.082Z,17.00
2022-10-29T19:52:01.033Z,17.00
2022-10-29T19:54:28.968Z,17.00
2022-10-29T19:56:57.016Z,16.90
2022-10-29T19:59:24.953Z,16.90
2022-10-29T20:01:53.055Z,16.90
2022-10-29T20:04:21.132Z,16.80
2022-10-29T20:06:50.340Z,16.80
2022-10-29T20:09:18.416Z,16.80
2022-10-29T20:11:46.271Z,18.30
2022-10-29T20:14:14.174Z,16.70
2022-10-29T20:16:42.131Z,16.70
2022-10-29T20:19:11.154Z,16.70
2022-10-29T20:21:39.052Z,16.70
2022-10-29T20:24:08.495Z,15.60
2022-10-29T20:26:36.377Z,16.70
2022-10-29T20:29:04.316Z,16.60
2022-10-29T20:31:37.213Z,16.60
2022-10-29T20:34:10.030Z,16.60
2022-10-29T20:36:38.103Z,16.60
2022-10-29T20:39:07.235Z,16.60
2022-10-29T20:41:37.375Z,16.90
2022-10-29T20:44:05.339Z,16.50
2022-10-29T20:46:33.272Z,16.50
2022-10-29T20:49:01.293Z,16.50
2022-10-29T20:51:29.439Z,16.50
2022-10-29T20:53:57.567Z,16.50
2022-10-29T20:56:26.617Z,16.40
2022-10-29T20:58:55.873Z,16.40
2022-10-29T21:01:24.894Z,16.40
2022-10-29T21:03:52.899Z,16.40
2022-10-29T21:06:21.250Z,16.30
2022-10-29T21:08:50.172Z,16.30
2022-10-29T21:11:19.049Z,16.30
2022-10-29T21:13:47.170Z,16.30
2022-10-29T21:16:17.418Z,16.30
2022-10-29T21:18:45.804Z,16.30
2022-10-29T21:21:13.884Z,16.20
2022-10-29T21:23:42.080Z,16.20
2022-10-29T21:26:11.757Z,16.20
2022-10-29T21:28:39.643Z,16.20
2022-10-29T21:31:07.655Z,16.20
2022-10-29T21:33:36.900Z,16.20
2022-10-29T21:36:05.213Z,16.20
2022-10-29T21:38:33.556Z,16.20
2022-10-29T21:41:02.116Z,16.10
2022-10-29T21:43:30.380Z,16.10
2022-10-29T21:45:58.310Z,16.10
2022-10-29T21:48:26.627Z,16.10
2022-10-29T21:51:01.302Z,16.00
2022-10-29T21:53:29.494Z,16.00
2022-10-29T21:55:57.667Z,16.00
2022-10-29T21:58:26.401Z,15.90
2022-10-29T22:01:02.181Z,15.90
2022-10-29T22:03:30.769Z,15.80
2022-10-29T22:06:03.742Z,15.80
2022-10-29T22:08:31.816Z,15.80
2022-10-29T22:11:00.346Z,15.70
2022-10-29T22:13:28.500Z,15.70
2022-10-29T22:15:56.703Z,15.70
2022-10-29T22:18:24.724Z,15.70
2022-10-29T22:21:04.501Z,15.70
2022-10-29T22:23:32.433Z,15.60
2022-10-29T22:26:00.360Z,15.60
2022-10-29T22:28:28.307Z,15.50
2022-10-29T22:31:00.333Z,15.50
2022-10-29T22:33:28.435Z,15.50
2022-10-29T22:35:56.375Z,15.40
2022-10-29T22:38:25.634Z,15.40
2022-10-29T22:40:53.565Z,15.40
2022-10-29T22:43:21.484Z,15.30
2022-10-29T22:45:49.403Z,15.30
2022-10-29T22:48:17.332Z,15.30
2022-10-29T22:50:45.214Z,15.30
2022-10-29T22:53:13.095Z,15.30
2022-10-29T22:55:42.337Z,15.20
2022-10-29T22:58:10.263Z,15.20
2022-10-29T23:00:38.167Z,15.20
2022-10-29T23:03:06.146Z,15.10
2022-10-29T23:05:34.066Z,15.10
2022-10-29T23:08:02.028Z,15.10
2022-10-29T23:10:30.026Z,15.10
2022-10-29T23:12:59.319Z,15.10
2022-10-29T23:15:27.229Z,15.10
2022-10-29T23:17:55.431Z,15.10
2022-10-29T23:20:23.619Z,15.10
2022-10-29T23:22:52.971Z,15.10
2022-10-29T23:25:20.877Z,15.10
2022-10-29T23:27:48.843Z,15.10
2022-10-29T23:30:18.123Z,15.10
2022-10-29T23:32:46.005Z,15.10
2022-10-29T23:35:14.085Z,15.10
2022-10-29T23:37:42.067Z,15.10
2022-10-29T23:40:10.499Z,15.00
2022-10-29T23:42:38.514Z,15.00
2022-10-29T23:45:07.965Z,15.00
2022-10-29T23:47:37.326Z,15.00
2022-10-29T23:50:05.266Z,14.90
2022-10-29T23:52:33.293Z,15.00
2022-10-29T23:55:01.241Z,15.00
2022-10-29T23:57:29.228Z,15.00
2022-10-29T23:59:57.137Z,14.90
